sensor_id;sensor_type;location;lat;lon;timestamp;P1;durP1;ratioP1;P2;durP2;ratioP2
29370;SDS011;16357;52.188;7.838;2023-11-19T00:00:06;4.65;;;2.67;;
29370;SDS011;16357;52.188;7.838;2023-11-19T00:02:41;2.83;;;2.47;;
29370;SDS011;16357;52.188;7.838;2023-11-19T00:05:09;2.58;;;2.38;;
29370;SDS011;16357;52.188;7.838;2023-11-19T00:07:38;2.70;;;2.50;;
29370;SDS011;16357;52.188;7.838;2023-11-19T00:10:09;3.00;;;2.70;;
29370;SDS011;16357;52.188;7.838;2023-11-19T00:12:38;2.83;;;2.63;;
29370;SDS011;16357;52.188;7.838;2023-11-19T00:15:06;3.00;;;2.80;;
29370;SDS011;16357;52.188;7.838;2023-11-19T00:17:38;3.13;;;2.85;;
29370;SDS011;16357;52.188;7.838;2023-11-19T00:20:12;3.42;;;3.13;;
29370;SDS011;16357;52.188;7.838;2023-11-19T00:22:40;3.60;;;3.30;;
29370;SDS011;16357;52.188;7.838;2023-11-19T00:25:10;3.78;;;3.47;;
29370;SDS011;16357;52.188;7.838;2023-11-19T00:27:37;3.35;;;3.05;;
29370;SDS011;16357;52.188;7.838;2023-11-19T00:30:04;3.22;;;2.97;;
29370;SDS011;16357;52.188;7.838;2023-11-19T00:32:32;3.35;;;3.08;;
29370;SDS011;16357;52.188;7.838;2023-11-19T00:34:59;3.53;;;3.22;;
29370;SDS011;16357;52.188;7.838;2023-11-19T00:37:26;3.42;;;3.10;;
29370;SDS011;16357;52.188;7.838;2023-11-19T00:39:53;3.72;;;3.42;;
29370;SDS011;16357;52.188;7.838;2023-11-19T00:42:19;4.07;;;3.63;;
29370;SDS011;16357;52.188;7.838;2023-11-19T00:44:46;3.35;;;2.90;;
29370;SDS011;16357;52.188;7.838;2023-11-19T00:47:16;3.25;;;2.95;;
29370;SDS011;16357;52.188;7.838;2023-11-19T00:49:49;3.25;;;3.05;;
29370;SDS011;16357;52.188;7.838;2023-11-19T00:52:16;3.40;;;3.10;;
29370;SDS011;16357;52.188;7.838;2023-11-19T00:54:43;3.63;;;3.33;;
29370;SDS011;16357;52.188;7.838;2023-11-19T00:57:10;3.17;;;2.90;;
29370;SDS011;16357;52.188;7.838;2023-11-19T00:59:36;3.70;;;3.40;;
29370;SDS011;16357;52.188;7.838;2023-11-19T01:02:03;3.40;;;3.10;;
29370;SDS011;16357;52.188;7.838;2023-11-19T01:04:35;3.92;;;3.53;;
29370;SDS011;16357;52.188;7.838;2023-11-19T01:07:03;3.70;;;3.40;;
29370;SDS011;16357;52.188;7.838;2023-11-19T01:09:32;5.03;;;3.45;;
29370;SDS011;16357;52.188;7.838;2023-11-19T01:12:01;3.50;;;3.20;;
29370;SDS011;16357;52.188;7.838;2023-11-19T01:14:28;3.90;;;3.60;;
29370;SDS011;16357;52.188;7.838;2023-11-19T01:16:55;3.95;;;3.65;;
29370;SDS011;16357;52.188;7.838;2023-11-19T01:19:22;5.45;;;4.22;;
29370;SDS011;16357;52.188;7.838;2023-11-19T01:21:49;4.30;;;3.90;;
29370;SDS011;16357;52.188;7.838;2023-11-19T01:24:19;4.72;;;4.32;;
29370;SDS011;16357;52.188;7.838;2023-11-19T01:26:46;4.20;;;3.80;;
29370;SDS011;16357;52.188;7.838;2023-11-19T01:29:13;5.60;;;4.60;;
29370;SDS011;16357;52.188;7.838;2023-11-19T01:31:41;4.70;;;4.30;;
29370;SDS011;16357;52.188;7.838;2023-11-19T01:34:13;4.75;;;4.32;;
29370;SDS011;16357;52.188;7.838;2023-11-19T01:36:39;6.28;;;4.55;;
29370;SDS011;16357;52.188;7.838;2023-11-19T01:39:06;5.20;;;4.72;;
29370;SDS011;16357;52.188;7.838;2023-11-19T01:41:36;6.88;;;5.03;;
29370;SDS011;16357;52.188;7.838;2023-11-19T01:44:02;5.50;;;5.00;;
29370;SDS011;16357;52.188;7.838;2023-11-19T01:46:31;6.40;;;5.80;;
29370;SDS011;16357;52.188;7.838;2023-11-19T01:48:59;6.18;;;5.57;;
29370;SDS011;16357;52.188;7.838;2023-11-19T01:51:27;9.00;;;6.05;;
29370;SDS011;16357;52.188;7.838;2023-11-19T01:53:53;9.25;;;6.35;;
29370;SDS011;16357;52.188;7.838;2023-11-19T01:56:22;6.03;;;5.43;;
29370;SDS011;16357;52.188;7.838;2023-11-19T01:58:49;7.30;;;6.60;;
29370;SDS011;16357;52.188;7.838;2023-11-19T02:01:16;7.57;;;6.15;;
29370;SDS011;16357;52.188;7.838;2023-11-19T02:03:43;6.88;;;6.18;;
29370;SDS011;16357;52.188;7.838;2023-11-19T02:06:09;7.30;;;6.60;;
29370;SDS011;16357;52.188;7.838;2023-11-19T02:08:36;7.93;;;6.45;;
29370;SDS011;16357;52.188;7.838;2023-11-19T02:11:05;9.00;;;7.38;;
29370;SDS011;16357;52.188;7.838;2023-11-19T02:13:33;7.65;;;6.85;;
29370;SDS011;16357;52.188;7.838;2023-11-19T02:16:02;8.43;;;6.93;;
29370;SDS011;16357;52.188;7.838;2023-11-19T02:18:30;9.55;;;7.63;;
29370;SDS011;16357;52.188;7.838;2023-11-19T02:20:57;8.65;;;7.50;;
29370;SDS011;16357;52.188;7.838;2023-11-19T02:23:28;9.65;;;7.28;;
29370;SDS011;16357;52.188;7.838;2023-11-19T02:26:03;9.73;;;7.35;;
29370;SDS011;16357;52.188;7.838;2023-11-19T02:28:44;8.75;;;7.85;;
29370;SDS011;16357;52.188;7.838;2023-11-19T02:31:11;8.38;;;7.28;;
29370;SDS011;16357;52.188;7.838;2023-11-19T02:33:38;9.20;;;7.88;;
29370;SDS011;16357;52.188;7.838;2023-11-19T02:36:06;8.90;;;8.00;;
29370;SDS011;16357;52.188;7.838;2023-11-19T02:38:34;11.95;;;8.63;;
29370;SDS011;16357;52.188;7.838;2023-11-19T02:41:03;13.00;;;9.30;;
29370;SDS011;16357;52.188;7.838;2023-11-19T02:43:33;11.23;;;8.73;;
29370;SDS011;16357;52.188;7.838;2023-11-19T02:46:01;11.13;;;9.27;;
29370;SDS011;16357;52.188;7.838;2023-11-19T02:48:28;12.18;;;10.18;;
29370;SDS011;16357;52.188;7.838;2023-11-19T02:50:54;11.38;;;9.50;;
29370;SDS011;16357;52.188;7.838;2023-11-19T02:53:21;14.55;;;10.65;;
29370;SDS011;16357;52.188;7.838;2023-11-19T02:55:48;15.00;;;10.98;;
29370;SDS011;16357;52.188;7.838;2023-11-19T02:58:16;14.40;;;10.07;;
29370;SDS011;16357;52.188;7.838;2023-11-19T03:00:46;12.43;;;10.07;;
29370;SDS011;16357;52.188;7.838;2023-11-19T03:03:18;13.15;;;10.10;;
29370;SDS011;16357;52.188;7.838;2023-11-19T03:05:49;15.20;;;11.48;;
29370;SDS011;16357;52.188;7.838;2023-11-19T03:08:15;17.00;;;10.77;;
29370;SDS011;16357;52.188;7.838;2023-11-19T03:10:45;15.38;;;11.30;;
29370;SDS011;16357;52.188;7.838;2023-11-19T03:13:13;14.00;;;10.45;;
29370;SDS011;16357;52.188;7.838;2023-11-19T03:15:43;14.68;;;10.30;;
29370;SDS011;16357;52.188;7.838;2023-11-19T03:18:10;12.95;;;10.77;;
29370;SDS011;16357;52.188;7.838;2023-11-19T03:20:37;12.63;;;10.05;;
29370;SDS011;16357;52.188;7.838;2023-11-19T03:23:03;12.32;;;9.93;;
29370;SDS011;16357;52.188;7.838;2023-11-19T03:25:30;18.75;;;10.70;;
29370;SDS011;16357;52.188;7.838;2023-11-19T03:28:03;12.70;;;10.50;;
29370;SDS011;16357;52.188;7.838;2023-11-19T03:30:30;12.20;;;9.38;;
29370;SDS011;16357;52.188;7.838;2023-11-19T03:33:00;10.90;;;9.70;;
29370;SDS011;16357;52.188;7.838;2023-11-19T03:35:28;16.63;;;9.73;;
29370;SDS011;16357;52.188;7.838;2023-11-19T03:37:55;12.35;;;9.68;;
29370;SDS011;16357;52.188;7.838;2023-11-19T03:40:22;13.52;;;9.32;;
29370;SDS011;16357;52.188;7.838;2023-11-19T03:42:48;15.23;;;9.32;;
29370;SDS011;16357;52.188;7.838;2023-11-19T03:45:15;13.90;;;8.98;;
29370;SDS011;16357;52.188;7.838;2023-11-19T03:47:42;12.05;;;8.68;;
29370;SDS011;16357;52.188;7.838;2023-11-19T03:50:09;10.63;;;8.35;;
29370;SDS011;16357;52.188;7.838;2023-11-19T03:52:35;15.60;;;8.88;;
29370;SDS011;16357;52.188;7.838;2023-11-19T03:55:05;14.65;;;8.63;;
29370;SDS011;16357;52.188;7.838;2023-11-19T03:57:34;12.60;;;8.70;;
29370;SDS011;16357;52.188;7.838;2023-11-19T04:00:01;11.00;;;8.27;;
29370;SDS011;16357;52.188;7.838;2023-11-19T04:02:35;12.52;;;7.28;;
29370;SDS011;16357;52.188;7.838;2023-11-19T04:05:01;13.77;;;7.47;;
29370;SDS011;16357;52.188;7.838;2023-11-19T04:07:29;12.20;;;7.03;;
29370;SDS011;16357;52.188;7.838;2023-11-19T04:09:56;13.75;;;6.43;;
29370;SDS011;16357;52.188;7.838;2023-11-19T04:12:22;8.20;;;5.78;;
29370;SDS011;16357;52.188;7.838;2023-11-19T04:14:49;13.13;;;5.60;;
29370;SDS011;16357;52.188;7.838;2023-11-19T04:17:26;16.33;;;4.90;;
29370;SDS011;16357;52.188;7.838;2023-11-19T04:19:53;13.20;;;4.20;;
29370;SDS011;16357;52.188;7.838;2023-11-19T04:22:20;14.75;;;4.47;;
29370;SDS011;16357;52.188;7.838;2023-11-19T04:24:47;11.40;;;4.25;;
29370;SDS011;16357;52.188;7.838;2023-11-19T04:27:13;12.75;;;4.07;;
29370;SDS011;16357;52.188;7.838;2023-11-19T04:29:40;14.85;;;4.38;;
29370;SDS011;16357;52.188;7.838;2023-11-19T04:32:06;11.75;;;4.30;;
29370;SDS011;16357;52.188;7.838;2023-11-19T04:34:33;13.98;;;4.28;;
29370;SDS011;16357;52.188;7.838;2023-11-19T04:37:00;13.07;;;3.83;;
29370;SDS011;16357;52.188;7.838;2023-11-19T04:39:33;15.00;;;4.20;;
29370;SDS011;16357;52.188;7.838;2023-11-19T04:42:00;15.70;;;4.10;;
29370;SDS011;16357;52.188;7.838;2023-11-19T04:44:26;16.70;;;4.43;;
29370;SDS011;16357;52.188;7.838;2023-11-19T04:46:52;14.38;;;4.03;;
29370;SDS011;16357;52.188;7.838;2023-11-19T04:49:19;13.52;;;3.80;;
29370;SDS011;16357;52.188;7.838;2023-11-19T04:51:47;12.27;;;3.58;;
29370;SDS011;16357;52.188;7.838;2023-11-19T04:54:14;15.50;;;3.83;;
29370;SDS011;16357;52.188;7.838;2023-11-19T04:56:40;21.25;;;4.78;;
29370;SDS011;16357;52.188;7.838;2023-11-19T04:59:11;12.88;;;4.18;;
29370;SDS011;16357;52.188;7.838;2023-11-19T05:01:38;18.05;;;4.55;;
29370;SDS011;16357;52.188;7.838;2023-11-19T05:04:04;14.93;;;4.15;;
29370;SDS011;16357;52.188;7.838;2023-11-19T05:06:31;12.00;;;3.45;;
29370;SDS011;16357;52.188;7.838;2023-11-19T05:08:59;17.70;;;3.97;;
29370;SDS011;16357;52.188;7.838;2023-11-19T05:14:02;13.60;;;3.72;;
29370;SDS011;16357;52.188;7.838;2023-11-19T05:16:30;14.15;;;4.53;;
29370;SDS011;16357;52.188;7.838;2023-11-19T05:18:57;16.25;;;3.33;;
29370;SDS011;16357;52.188;7.838;2023-11-19T05:21:23;18.98;;;4.40;;
29370;SDS011;16357;52.188;7.838;2023-11-19T05:23:50;16.15;;;3.78;;
29370;SDS011;16357;52.188;7.838;2023-11-19T05:26:17;16.83;;;3.58;;
29370;SDS011;16357;52.188;7.838;2023-11-19T05:28:44;17.33;;;4.03;;
29370;SDS011;16357;52.188;7.838;2023-11-19T05:31:11;18.25;;;4.30;;
29370;SDS011;16357;52.188;7.838;2023-11-19T05:33:37;18.45;;;4.40;;
29370;SDS011;16357;52.188;7.838;2023-11-19T05:36:04;13.35;;;3.58;;
29370;SDS011;16357;52.188;7.838;2023-11-19T05:38:31;20.35;;;3.85;;
29370;SDS011;16357;52.188;7.838;2023-11-19T05:40:58;17.08;;;4.18;;
29370;SDS011;16357;52.188;7.838;2023-11-19T05:43:24;17.65;;;4.20;;
29370;SDS011;16357;52.188;7.838;2023-11-19T05:45:51;20.00;;;4.78;;
29370;SDS011;16357;52.188;7.838;2023-11-19T05:48:17;20.90;;;4.45;;
29370;SDS011;16357;52.188;7.838;2023-11-19T05:50:44;19.30;;;4.55;;
29370;SDS011;16357;52.188;7.838;2023-11-19T05:53:10;20.90;;;4.60;;
29370;SDS011;16357;52.188;7.838;2023-11-19T05:55:39;21.15;;;4.28;;
29370;SDS011;16357;52.188;7.838;2023-11-19T05:58:15;21.60;;;4.20;;
29370;SDS011;16357;52.188;7.838;2023-11-19T06:00:42;20.15;;;3.97;;
29370;SDS011;16357;52.188;7.838;2023-11-19T06:03:09;23.95;;;4.57;;
29370;SDS011;16357;52.188;7.838;2023-11-19T06:05:35;19.42;;;4.22;;
29370;SDS011;16357;52.188;7.838;2023-11-19T06:08:02;26.02;;;5.10;;
29370;SDS011;16357;52.188;7.838;2023-11-19T06:10:28;25.42;;;5.07;;
29370;SDS011;16357;52.188;7.838;2023-11-19T06:12:58;27.92;;;4.80;;
29370;SDS011;16357;52.188;7.838;2023-11-19T06:15:26;28.48;;;5.70;;
29370;SDS011;16357;52.188;7.838;2023-11-19T06:17:53;23.50;;;5.20;;
29370;SDS011;16357;52.188;7.838;2023-11-19T06:20:21;21.63;;;4.63;;
29370;SDS011;16357;52.188;7.838;2023-11-19T06:22:47;30.85;;;5.63;;
29370;SDS011;16357;52.188;7.838;2023-11-19T06:25:14;23.85;;;5.15;;
29370;SDS011;16357;52.188;7.838;2023-11-19T06:27:41;25.05;;;5.75;;
29370;SDS011;16357;52.188;7.838;2023-11-19T06:30:08;27.83;;;5.10;;
29370;SDS011;16357;52.188;7.838;2023-11-19T06:32:36;31.75;;;6.07;;
29370;SDS011;16357;52.188;7.838;2023-11-19T06:35:02;24.50;;;5.45;;
29370;SDS011;16357;52.188;7.838;2023-11-19T06:37:30;23.75;;;5.68;;
29370;SDS011;16357;52.188;7.838;2023-11-19T06:39:57;17.95;;;5.07;;
29370;SDS011;16357;52.188;7.838;2023-11-19T06:42:23;21.55;;;5.45;;
29370;SDS011;16357;52.188;7.838;2023-11-19T06:44:50;26.05;;;6.05;;
29370;SDS011;16357;52.188;7.838;2023-11-19T06:47:17;28.05;;;5.82;;
29370;SDS011;16357;52.188;7.838;2023-11-19T06:49:44;28.17;;;5.78;;
29370;SDS011;16357;52.188;7.838;2023-11-19T06:52:11;27.33;;;6.53;;
29370;SDS011;16357;52.188;7.838;2023-11-19T06:54:40;26.40;;;5.07;;
29370;SDS011;16357;52.188;7.838;2023-11-19T06:57:07;21.25;;;5.47;;
29370;SDS011;16357;52.188;7.838;2023-11-19T06:59:35;27.20;;;5.60;;
29370;SDS011;16357;52.188;7.838;2023-11-19T07:02:02;29.38;;;6.78;;
29370;SDS011;16357;52.188;7.838;2023-11-19T07:04:28;30.00;;;6.55;;
29370;SDS011;16357;52.188;7.838;2023-11-19T07:06:55;26.60;;;6.22;;
29370;SDS011;16357;52.188;7.838;2023-11-19T07:09:21;27.58;;;6.07;;
29370;SDS011;16357;52.188;7.838;2023-11-19T07:11:49;32.45;;;6.90;;
29370;SDS011;16357;52.188;7.838;2023-11-19T07:14:18;30.75;;;5.75;;
29370;SDS011;16357;52.188;7.838;2023-11-19T07:16:45;29.13;;;6.53;;
29370;SDS011;16357;52.188;7.838;2023-11-19T07:19:12;29.67;;;5.57;;
29370;SDS011;16357;52.188;7.838;2023-11-19T07:21:42;24.20;;;5.28;;
29370;SDS011;16357;52.188;7.838;2023-11-19T07:24:10;25.63;;;5.80;;
29370;SDS011;16357;52.188;7.838;2023-11-19T07:26:43;20.00;;;4.55;;
29370;SDS011;16357;52.188;7.838;2023-11-19T07:29:10;26.05;;;5.65;;
29370;SDS011;16357;52.188;7.838;2023-11-19T07:31:37;27.27;;;6.28;;
29370;SDS011;16357;52.188;7.838;2023-11-19T07:34:03;23.88;;;5.15;;
29370;SDS011;16357;52.188;7.838;2023-11-19T07:36:32;28.38;;;5.90;;
29370;SDS011;16357;52.188;7.838;2023-11-19T07:38:59;27.30;;;5.88;;
29370;SDS011;16357;52.188;7.838;2023-11-19T07:41:25;26.38;;;5.15;;
29370;SDS011;16357;52.188;7.838;2023-11-19T07:43:52;25.90;;;5.78;;
29370;SDS011;16357;52.188;7.838;2023-11-19T07:46:19;28.08;;;5.13;;
29370;SDS011;16357;52.188;7.838;2023-11-19T07:48:46;28.38;;;6.15;;
29370;SDS011;16357;52.188;7.838;2023-11-19T07:51:15;28.73;;;6.38;;
29370;SDS011;16357;52.188;7.838;2023-11-19T07:53:42;26.48;;;5.93;;
29370;SDS011;16357;52.188;7.838;2023-11-19T07:56:09;25.42;;;5.80;;
29370;SDS011;16357;52.188;7.838;2023-11-19T07:58:36;21.80;;;5.30;;
29370;SDS011;16357;52.188;7.838;2023-11-19T08:01:02;21.30;;;5.53;;
29370;SDS011;16357;52.188;7.838;2023-11-19T08:03:29;27.40;;;5.97;;
29370;SDS011;16357;52.188;7.838;2023-11-19T08:05:56;31.42;;;5.70;;
29370;SDS011;16357;52.188;7.838;2023-11-19T08:08:25;31.70;;;6.45;;
29370;SDS011;16357;52.188;7.838;2023-11-19T08:10:52;23.05;;;6.00;;
29370;SDS011;16357;52.188;7.838;2023-11-19T08:13:20;26.45;;;6.38;;
29370;SDS011;16357;52.188;7.838;2023-11-19T08:15:47;28.30;;;6.75;;
29370;SDS011;16357;52.188;7.838;2023-11-19T08:18:13;34.35;;;6.60;;
29370;SDS011;16357;52.188;7.838;2023-11-19T08:20:40;39.95;;;6.70;;
29370;SDS011;16357;52.188;7.838;2023-11-19T08:23:07;24.27;;;6.65;;
29370;SDS011;16357;52.188;7.838;2023-11-19T08:25:34;24.92;;;5.45;;
29370;SDS011;16357;52.188;7.838;2023-11-19T08:28:01;28.25;;;5.75;;
29370;SDS011;16357;52.188;7.838;2023-11-19T08:30:27;28.58;;;5.63;;
29370;SDS011;16357;52.188;7.838;2023-11-19T08:32:54;32.28;;;6.30;;
29370;SDS011;16357;52.188;7.838;2023-11-19T08:35:20;23.42;;;5.30;;
29370;SDS011;16357;52.188;7.838;2023-11-19T08:37:47;23.88;;;5.10;;
29370;SDS011;16357;52.188;7.838;2023-11-19T08:40:13;29.48;;;5.90;;
29370;SDS011;16357;52.188;7.838;2023-11-19T08:42:40;33.22;;;6.32;;
29370;SDS011;16357;52.188;7.838;2023-11-19T08:45:08;24.98;;;5.18;;
29370;SDS011;16357;52.188;7.838;2023-11-19T08:47:36;26.20;;;5.68;;
29370;SDS011;16357;52.188;7.838;2023-11-19T08:50:03;28.05;;;6.32;;
29370;SDS011;16357;52.188;7.838;2023-11-19T08:52:30;27.38;;;5.53;;
29370;SDS011;16357;52.188;7.838;2023-11-19T08:55:00;30.23;;;6.28;;
29370;SDS011;16357;52.188;7.838;2023-11-19T08:57:27;25.73;;;5.25;;
29370;SDS011;16357;52.188;7.838;2023-11-19T08:59:53;29.73;;;6.32;;
29370;SDS011;16357;52.188;7.838;2023-11-19T09:02:20;35.05;;;5.90;;
29370;SDS011;16357;52.188;7.838;2023-11-19T09:04:46;24.60;;;5.30;;
29370;SDS011;16357;52.188;7.838;2023-11-19T09:07:15;25.45;;;6.00;;
29370;SDS011;16357;52.188;7.838;2023-11-19T09:09:41;27.67;;;5.97;;
29370;SDS011;16357;52.188;7.838;2023-11-19T09:12:08;27.95;;;6.35;;
29370;SDS011;16357;52.188;7.838;2023-11-19T09:14:34;27.15;;;5.65;;
29370;SDS011;16357;52.188;7.838;2023-11-19T09:17:01;28.08;;;5.75;;
29370;SDS011;16357;52.188;7.838;2023-11-19T09:19:28;23.02;;;5.85;;
29370;SDS011;16357;52.188;7.838;2023-11-19T09:21:54;29.98;;;5.65;;
29370;SDS011;16357;52.188;7.838;2023-11-19T09:24:21;31.27;;;5.93;;
29370;SDS011;16357;52.188;7.838;2023-11-19T09:26:47;28.95;;;5.90;;
29370;SDS011;16357;52.188;7.838;2023-11-19T09:29:14;27.58;;;5.68;;
29370;SDS011;16357;52.188;7.838;2023-11-19T09:31:40;27.75;;;6.43;;
29370;SDS011;16357;52.188;7.838;2023-11-19T09:34:07;33.40;;;6.10;;
29370;SDS011;16357;52.188;7.838;2023-11-19T09:36:34;27.52;;;5.32;;
29370;SDS011;16357;52.188;7.838;2023-11-19T09:39:00;25.20;;;5.57;;
29370;SDS011;16357;52.188;7.838;2023-11-19T09:41:28;33.90;;;7.20;;
29370;SDS011;16357;52.188;7.838;2023-11-19T09:43:57;27.95;;;5.72;;
29370;SDS011;16357;52.188;7.838;2023-11-19T09:46:23;35.08;;;6.13;;
29370;SDS011;16357;52.188;7.838;2023-11-19T09:48:52;30.13;;;6.38;;
29370;SDS011;16357;52.188;7.838;2023-11-19T09:51:22;28.67;;;5.65;;
29370;SDS011;16357;52.188;7.838;2023-11-19T09:53:49;32.33;;;6.13;;
29370;SDS011;16357;52.188;7.838;2023-11-19T09:56:16;34.63;;;5.72;;
29370;SDS011;16357;52.188;7.838;2023-11-19T09:58:45;26.85;;;5.63;;
29370;SDS011;16357;52.188;7.838;2023-11-19T10:01:13;29.13;;;6.03;;
29370;SDS011;16357;52.188;7.838;2023-11-19T10:03:43;29.58;;;6.53;;
29370;SDS011;16357;52.188;7.838;2023-11-19T10:06:14;27.75;;;6.00;;
29370;SDS011;16357;52.188;7.838;2023-11-19T10:08:42;23.65;;;5.82;;
29370;SDS011;16357;52.188;7.838;2023-11-19T10:11:09;23.30;;;5.60;;
29370;SDS011;16357;52.188;7.838;2023-11-19T10:13:38;23.20;;;5.60;;
29370;SDS011;16357;52.188;7.838;2023-11-19T10:16:08;23.45;;;6.03;;
29370;SDS011;16357;52.188;7.838;2023-11-19T10:18:37;26.23;;;6.13;;
29370;SDS011;16357;52.188;7.838;2023-11-19T10:21:11;27.65;;;6.80;;
29370;SDS011;16357;52.188;7.838;2023-11-19T10:23:49;21.88;;;6.05;;
29370;SDS011;16357;52.188;7.838;2023-11-19T10:26:18;28.90;;;6.22;;
29370;SDS011;16357;52.188;7.838;2023-11-19T10:28:45;25.08;;;6.03;;
29370;SDS011;16357;52.188;7.838;2023-11-19T10:31:16;22.25;;;5.53;;
29370;SDS011;16357;52.188;7.838;2023-11-19T10:33:44;23.92;;;5.38;;
29370;SDS011;16357;52.188;7.838;2023-11-19T10:36:12;26.00;;;5.40;;
29370;SDS011;16357;52.188;7.838;2023-11-19T10:38:39;27.23;;;6.45;;
29370;SDS011;16357;52.188;7.838;2023-11-19T10:41:06;26.30;;;5.43;;
29370;SDS011;16357;52.188;7.838;2023-11-19T10:43:51;22.25;;;5.35;;
29370;SDS011;16357;52.188;7.838;2023-11-19T10:46:18;27.77;;;5.43;;
29370;SDS011;16357;52.188;7.838;2023-11-19T10:48:49;32.20;;;6.05;;
29370;SDS011;16357;52.188;7.838;2023-11-19T10:51:19;22.45;;;5.72;;
29370;SDS011;16357;52.188;7.838;2023-11-19T10:53:50;28.83;;;5.63;;
29370;SDS011;16357;52.188;7.838;2023-11-19T10:56:18;30.98;;;6.03;;
29370;SDS011;16357;52.188;7.838;2023-11-19T10:58:46;21.05;;;5.28;;
29370;SDS011;16357;52.188;7.838;2023-11-19T11:01:18;25.77;;;5.93;;
29370;SDS011;16357;52.188;7.838;2023-11-19T11:03:47;26.65;;;5.28;;
29370;SDS011;16357;52.188;7.838;2023-11-19T11:06:17;28.20;;;6.30;;
29370;SDS011;16357;52.188;7.838;2023-11-19T11:08:46;29.20;;;6.88;;
29370;SDS011;16357;52.188;7.838;2023-11-19T11:11:13;22.30;;;5.93;;
29370;SDS011;16357;52.188;7.838;2023-11-19T11:13:43;27.52;;;5.53;;
29370;SDS011;16357;52.188;7.838;2023-11-19T11:16:11;25.75;;;5.32;;
29370;SDS011;16357;52.188;7.838;2023-11-19T11:18:38;31.63;;;6.68;;
29370;SDS011;16357;52.188;7.838;2023-11-19T11:21:09;30.27;;;6.70;;
29370;SDS011;16357;52.188;7.838;2023-11-19T11:35:16;33.47;;;5.88;;
29370;SDS011;16357;52.188;7.838;2023-11-19T11:38:04;26.27;;;5.72;;
29370;SDS011;16357;52.188;7.838;2023-11-19T11:40:33;26.40;;;5.55;;
29370;SDS011;16357;52.188;7.838;2023-11-19T11:43:00;23.88;;;5.43;;
29370;SDS011;16357;52.188;7.838;2023-11-19T11:45:40;22.75;;;5.53;;
29370;SDS011;16357;52.188;7.838;2023-11-19T11:48:13;24.10;;;5.10;;
29370;SDS011;16357;52.188;7.838;2023-11-19T11:50:52;28.15;;;6.43;;
29370;SDS011;16357;52.188;7.838;2023-11-19T11:53:21;24.27;;;5.68;;
29370;SDS011;16357;52.188;7.838;2023-11-19T11:58:35;30.08;;;6.00;;
29370;SDS011;16357;52.188;7.838;2023-11-19T12:01:03;25.80;;;6.25;;
29370;SDS011;16357;52.188;7.838;2023-11-19T12:03:32;29.23;;;6.05;;
29370;SDS011;16357;52.188;7.838;2023-11-19T12:05:59;27.05;;;5.88;;
29370;SDS011;16357;52.188;7.838;2023-11-19T12:08:27;27.48;;;5.60;;
29370;SDS011;16357;52.188;7.838;2023-11-19T12:10:55;29.20;;;5.75;;
29370;SDS011;16357;52.188;7.838;2023-11-19T12:13:29;24.80;;;6.18;;
29370;SDS011;16357;52.188;7.838;2023-11-19T12:16:12;32.97;;;6.38;;
29370;SDS011;16357;52.188;7.838;2023-11-19T12:18:39;23.58;;;4.82;;
29370;SDS011;16357;52.188;7.838;2023-11-19T12:21:07;31.25;;;5.60;;
29370;SDS011;16357;52.188;7.838;2023-11-19T12:23:43;23.45;;;5.50;;
29370;SDS011;16357;52.188;7.838;2023-11-19T12:26:20;23.50;;;4.77;;
29370;SDS011;16357;52.188;7.838;2023-11-19T12:31:25;27.42;;;5.55;;
29370;SDS011;16357;52.188;7.838;2023-11-19T12:33:51;24.90;;;5.55;;
29370;SDS011;16357;52.188;7.838;2023-11-19T12:36:19;25.10;;;5.32;;
29370;SDS011;16357;52.188;7.838;2023-11-19T12:38:46;23.33;;;5.22;;
29370;SDS011;16357;52.188;7.838;2023-11-19T12:41:12;27.50;;;5.55;;
29370;SDS011;16357;52.188;7.838;2023-11-19T12:43:39;24.13;;;5.65;;
29370;SDS011;16357;52.188;7.838;2023-11-19T12:48:46;23.08;;;5.13;;
29370;SDS011;16357;52.188;7.838;2023-11-19T12:51:17;22.73;;;4.95;;
29370;SDS011;16357;52.188;7.838;2023-11-19T12:53:47;24.23;;;4.88;;
29370;SDS011;16357;52.188;7.838;2023-11-19T12:56:15;19.05;;;4.78;;
29370;SDS011;16357;52.188;7.838;2023-11-19T12:58:42;25.08;;;5.38;;
29370;SDS011;16357;52.188;7.838;2023-11-19T13:01:09;21.85;;;5.10;;
29370;SDS011;16357;52.188;7.838;2023-11-19T13:03:38;21.17;;;4.80;;
29370;SDS011;16357;52.188;7.838;2023-11-19T13:06:06;25.13;;;5.47;;
29370;SDS011;16357;52.188;7.838;2023-11-19T13:08:47;23.95;;;5.00;;
29370;SDS011;16357;52.188;7.838;2023-11-19T13:11:29;23.92;;;5.45;;
29370;SDS011;16357;52.188;7.838;2023-11-19T13:13:58;21.45;;;4.32;;
29370;SDS011;16357;52.188;7.838;2023-11-19T13:16:26;18.38;;;5.10;;
29370;SDS011;16357;52.188;7.838;2023-11-19T13:18:54;22.02;;;4.75;;
29370;SDS011;16357;52.188;7.838;2023-11-19T13:21:21;20.77;;;4.78;;
29370;SDS011;16357;52.188;7.838;2023-11-19T13:23:47;21.10;;;4.68;;
29370;SDS011;16357;52.188;7.838;2023-11-19T13:26:14;27.70;;;4.90;;
29370;SDS011;16357;52.188;7.838;2023-11-19T13:28:40;22.27;;;5.40;;
29370;SDS011;16357;52.188;7.838;2023-11-19T13:31:07;20.25;;;4.97;;
29370;SDS011;16357;52.188;7.838;2023-11-19T13:33:33;22.00;;;4.78;;
29370;SDS011;16357;52.188;7.838;2023-11-19T13:36:01;27.55;;;5.63;;
29370;SDS011;16357;52.188;7.838;2023-11-19T13:38:32;19.40;;;4.57;;
29370;SDS011;16357;52.188;7.838;2023-11-19T13:40:59;21.23;;;5.25;;
29370;SDS011;16357;52.188;7.838;2023-11-19T13:43:26;24.45;;;5.20;;
29370;SDS011;16357;52.188;7.838;2023-11-19T13:45:54;21.77;;;5.47;;
29370;SDS011;16357;52.188;7.838;2023-11-19T13:48:21;23.70;;;5.32;;
29370;SDS011;16357;52.188;7.838;2023-11-19T13:50:48;23.27;;;4.85;;
29370;SDS011;16357;52.188;7.838;2023-11-19T13:53:15;21.60;;;4.93;;
29370;SDS011;16357;52.188;7.838;2023-11-19T13:55:42;19.02;;;4.70;;
29370;SDS011;16357;52.188;7.838;2023-11-19T13:58:09;22.13;;;4.35;;
29370;SDS011;16357;52.188;7.838;2023-11-19T14:00:36;23.98;;;5.00;;
29370;SDS011;16357;52.188;7.838;2023-11-19T14:03:04;18.70;;;4.32;;
29370;SDS011;16357;52.188;7.838;2023-11-19T14:05:31;18.33;;;4.18;;
29370;SDS011;16357;52.188;7.838;2023-11-19T14:08:00;20.23;;;4.68;;
29370;SDS011;16357;52.188;7.838;2023-11-19T14:10:29;16.05;;;3.97;;
29370;SDS011;16357;52.188;7.838;2023-11-19T14:12:55;19.85;;;4.50;;
29370;SDS011;16357;52.188;7.838;2023-11-19T14:15:21;20.45;;;4.68;;
29370;SDS011;16357;52.188;7.838;2023-11-19T14:17:48;19.73;;;4.57;;
29370;SDS011;16357;52.188;7.838;2023-11-19T14:20:14;19.38;;;4.93;;
29370;SDS011;16357;52.188;7.838;2023-11-19T14:22:43;23.50;;;5.18;;
29370;SDS011;16357;52.188;7.838;2023-11-19T14:25:10;20.60;;;4.38;;
29370;SDS011;16357;52.188;7.838;2023-11-19T14:27:38;19.02;;;5.03;;
29370;SDS011;16357;52.188;7.838;2023-11-19T14:30:05;15.93;;;4.25;;
29370;SDS011;16357;52.188;7.838;2023-11-19T14:32:33;19.00;;;4.13;;
29370;SDS011;16357;52.188;7.838;2023-11-19T14:34:59;18.88;;;4.00;;
29370;SDS011;16357;52.188;7.838;2023-11-19T14:37:26;21.00;;;4.00;;
29370;SDS011;16357;52.188;7.838;2023-11-19T14:39:52;18.38;;;3.90;;
29370;SDS011;16357;52.188;7.838;2023-11-19T14:42:19;17.30;;;4.13;;
29370;SDS011;16357;52.188;7.838;2023-11-19T14:44:45;19.73;;;4.32;;
29370;SDS011;16357;52.188;7.838;2023-11-19T14:47:12;16.42;;;3.90;;
29370;SDS011;16357;52.188;7.838;2023-11-19T14:49:38;18.73;;;3.88;;
29370;SDS011;16357;52.188;7.838;2023-11-19T14:52:05;18.50;;;3.60;;
29370;SDS011;16357;52.188;7.838;2023-11-19T14:54:34;15.38;;;3.75;;
29370;SDS011;16357;52.188;7.838;2023-11-19T14:57:01;19.65;;;3.85;;
29370;SDS011;16357;52.188;7.838;2023-11-19T14:59:27;19.02;;;4.32;;
29370;SDS011;16357;52.188;7.838;2023-11-19T15:01:54;23.00;;;4.22;;